Time;durP1;ratioP1;P1;durP2;ratioP2;P2;SDS_P1;SDS_P2;PMS_P1;PMS_P2;Temp;Humidity;BMP_temperature;BMP_pressure;BME280_temperature;BME280_humidity;BME280_pressure;Samples;Min_cycle;Max_cycle;Signal;HPM_P1;HPM_P2
2021/09/21 06:01:23;;;;;;;46.78;11.00;;;12.20;99.90;;;;;;5457431;23;20453;-83
2021/09/21 06:03:50;;;;;;;92.82;12.20;;;12.10;99.90;;;;;;4902461;29;20059;-82
2021/09/21 06:06:17;;;;;;;97.05;11.48;;;12.00;99.90;;;;;;4914267;29;20576;-81
2021/09/21 06:08:44;;;;;;;84.75;13.10;;;11.90;99.90;;;;;;4915456;29;20477;-81
2021/09/21 06:11:11;;;;;;;39.10;10.40;;;11.80;99.90;;;;;;4914351;29;20051;-80
2021/09/21 06:13:38;;;;;;;33.17;12.75;;;11.80;99.90;;;;;;4914550;29;20052;-82
2021/09/21 06:16:05;;;;;;;15.55;10.10;;;11.70;99.90;;;;;;4905564;29;20524;-80
2021/09/21 06:18:32;;;;;;;14.35;9.77;;;11.70;99.90;;;;;;4905449;29;20044;-82
2021/09/21 06:20:59;;;;;;;20.85;12.02;;;11.70;99.90;;;;;;4915552;29;20472;-83
2021/09/21 06:23:25;;;;;;;15.50;9.55;;;11.70;99.90;;;;;;4902909;29;20108;-85
2021/09/21 06:25:52;;;;;;;15.27;10.82;;;11.70;99.90;;;;;;4910229;29;20052;-82
2021/09/21 06:28:19;;;;;;;16.75;10.50;;;11.70;99.90;;;;;;4913743;29;20131;-84
2021/09/21 06:30:46;;;;;;;18.48;11.25;;;11.60;99.90;;;;;;4914041;29;20048;-84
2021/09/21 06:33:13;;;;;;;16.88;10.95;;;11.70;99.90;;;;;;4914404;29;20048;-84
2021/09/21 06:35:40;;;;;;;22.52;12.35;;;11.70;99.90;;;;;;4913044;29;20108;-82
2021/09/21 06:38:07;;;;;;;15.30;10.75;;;11.80;99.90;;;;;;4914233;29;20079;-81
2021/09/21 06:40:33;;;;;;;17.45;10.30;;;11.90;99.90;;;;;;4914415;29;20573;-82
2021/09/21 06:43:00;;;;;;;25.15;13.20;;;12.00;99.90;;;;;;4914000;29;20083;-82
2021/09/21 06:45:27;;;;;;;14.23;10.48;;;12.10;99.90;;;;;;4898994;29;20099;-81
2021/09/21 06:47:54;;;;;;;13.40;9.95;;;12.10;99.90;;;;;;4907640;29;20075;-81
2021/09/21 06:50:21;;;;;;;14.02;9.77;;;12.20;99.90;;;;;;4903129;29;20099;-80
2021/09/21 06:52:48;;;;;;;13.93;10.00;;;12.30;99.90;;;;;;4909390;29;20079;-81
2021/09/21 06:55:15;;;;;;;14.35;10.38;;;12.40;99.90;;;;;;4913688;29;20079;-80
2021/09/21 06:57:51;;;;;;;13.15;10.52;;;12.40;99.90;;;;;;4914200;29;20052;-80
2021/09/21 07:00:20;;;;;;;13.30;10.30;;;12.50;99.90;;;;;;4913024;29;20056;-79
2021/09/21 07:02:51;;;;;;;;;;;12.60;99.90;;;;;;4900791;29;20076;-81
2021/09/21 07:05:19;;;;;;;13.30;10.43;;;12.60;99.90;;;;;;4912189;29;19927;-80
2021/09/21 07:07:50;;;;;;;15.48;9.93;;;12.70;99.90;;;;;;4907241;29;20420;-81
2021/09/21 07:10:18;;;;;;;15.13;9.68;;;12.70;99.90;;;;;;4909548;29;20048;-86
2021/09/21 07:12:47;;;;;;;13.48;9.32;;;12.80;99.90;;;;;;4901693;29;20048;-80
2021/09/21 07:15:14;;;;;;;13.38;9.73;;;12.90;99.90;;;;;;4913163;29;20592;-82
2021/09/21 07:17:41;;;;;;;9.77;8.77;;;12.90;99.90;;;;;;4912809;29;20086;-81
2021/09/21 07:20:09;;;;;;;11.25;9.25;;;13.00;99.90;;;;;;4930824;29;20051;-81
2021/09/21 07:22:36;;;;;;;13.13;9.82;;;13.10;99.90;;;;;;4932693;29;20047;-82
2021/09/21 07:25:05;;;;;;;15.15;10.15;;;13.20;99.90;;;;;;4932508;29;20048;-82
2021/09/21 07:27:32;;;;;;;12.63;9.60;;;13.20;99.90;;;;;;4932059;29;20050;-81
2021/09/21 07:29:59;;;;;;;13.85;9.57;;;13.30;99.90;;;;;;4932561;29;20649;-79
2021/09/21 07:32:26;;;;;;;14.13;10.23;;;13.40;99.90;;;;;;4920179;29;20088;-81
2021/09/21 07:34:54;;;;;;;13.80;9.10;;;13.40;99.90;;;;;;4927344;29;20075;-82
2021/09/21 07:37:21;;;;;;;12.13;10.25;;;13.50;99.90;;;;;;4930770;29;20075;-82
2021/09/21 07:39:48;;;;;;;12.32;10.50;;;13.60;99.90;;;;;;4931659;29;20047;-82
2021/09/21 07:42:17;;;;;;;12.10;10.38;;;13.70;99.90;;;;;;4930575;29;20079;-82
2021/09/21 07:44:45;;;;;;;15.50;11.18;;;13.70;99.90;;;;;;4931408;29;20048;-82
2021/09/21 07:47:14;;;;;;;12.80;11.05;;;13.80;99.90;;;;;;4930513;29;20079;-81
2021/09/21 07:49:41;;;;;;;12.18;10.02;;;13.80;99.90;;;;;;4930861;29;20048;-82
2021/09/21 07:52:09;;;;;;;14.68;10.55;;;13.80;99.90;;;;;;4913895;29;20083;-81
2021/09/21 07:54:36;;;;;;;19.27;11.50;;;13.80;99.90;;;;;;4931190;29;20058;-82
2021/09/21 07:57:02;;;;;;;14.13;11.70;;;13.70;99.90;;;;;;4931171;29;20111;-82
2021/09/21 07:59:29;;;;;;;15.85;11.80;;;13.70;99.90;;;;;;4931016;29;20103;-81
2021/09/21 08:01:56;;;;;;;12.77;11.48;;;13.70;99.90;;;;;;4930624;29;20460;-81
2021/09/21 08:04:24;;;;;;;15.43;11.23;;;13.70;99.90;;;;;;4930412;29;20081;-81
2021/09/21 08:06:51;;;;;;;16.20;11.65;;;13.80;99.90;;;;;;4936967;29;20483;-82
2021/09/21 08:09:18;;;;;;;17.55;12.25;;;13.80;99.90;;;;;;4930083;29;20048;-82
2021/09/21 08:11:45;;;;;;;13.60;11.10;;;13.90;99.90;;;;;;4931416;29;20059;-82
2021/09/21 08:14:12;;;;;;;16.17;12.73;;;13.90;99.90;;;;;;4930410;29;20051;-81
2021/09/21 08:16:39;;;;;;;15.05;11.65;;;13.90;99.90;;;;;;4934857;29;20111;-81
2021/09/21 08:19:06;;;;;;;17.17;13.40;;;14.00;99.90;;;;;;4933293;29;20508;-82
2021/09/21 08:21:33;;;;;;;19.48;13.02;;;14.00;99.90;;;;;;4934437;29;20107;-81
2021/09/21 08:24:01;;;;;;;28.17;17.83;;;14.10;99.90;;;;;;4918086;29;20431;-82
2021/09/21 08:26:28;;;;;;;27.33;19.07;;;14.10;99.90;;;;;;4933331;29;20047;-81
2021/09/21 08:28:54;;;;;;;30.25;20.20;;;14.10;99.90;;;;;;4934180;29;20331;-82
2021/09/21 08:31:21;;;;;;;33.30;21.55;;;14.20;99.90;;;;;;4933673;29;20103;-82
2021/09/21 08:33:48;;;;;;;28.48;21.02;;;14.20;99.90;;;;;;4934350;29;20103;-81
2021/09/21 08:36:22;;;;;;;25.15;19.65;;;14.30;99.90;;;;;;4933589;29;20526;-82
2021/09/21 08:38:50;;;;;;;28.73;19.10;;;14.30;99.90;;;;;;4935208;29;20508;-82
2021/09/21 08:41:17;;;;;;;31.27;19.63;;;14.30;99.90;;;;;;4932971;29;20071;-82
2021/09/21 08:43:44;;;;;;;26.75;17.58;;;14.40;99.90;;;;;;4933746;29;20115;-82
2021/09/21 08:46:11;;;;;;;24.55;17.63;;;14.40;99.90;;;;;;4916268;29;20079;-82
2021/09/21 08:48:39;;;;;;;22.60;16.45;;;14.50;99.90;;;;;;4917075;29;20052;-81
2021/09/21 08:51:06;;;;;;;18.20;15.18;;;14.50;99.90;;;;;;4933798;29;20052;-80
2021/09/21 08:53:33;;;;;;;19.98;15.50;;;14.60;99.90;;;;;;4933914;29;20052;-81
2021/09/21 08:56:00;;;;;;;20.90;15.20;;;14.60;99.90;;;;;;4926168;29;20074;-81
2021/09/21 08:58:27;;;;;;;19.33;14.93;;;14.70;99.90;;;;;;4925438;29;20375;-81
2021/09/21 09:00:54;;;;;;;19.50;14.77;;;14.80;99.90;;;;;;4916675;29;20516;-81
2021/09/21 09:03:23;;;;;;;19.38;14.40;;;14.90;99.90;;;;;;4932630;29;20539;-82
2021/09/21 09:05:55;;;;;;;15.57;12.98;;;15.00;99.90;;;;;;4939064;29;20098;-81
2021/09/21 09:08:28;;;;;;;16.25;12.88;;;15.10;99.90;;;;;;4932845;29;20051;-81
2021/09/21 09:11:22;;;;;;;17.40;12.23;;;15.30;99.90;;;;;;4932999;29;20166;-81
2021/09/21 09:13:55;;;;;;;16.13;12.00;;;15.50;99.90;;;;;;4932924;29;20048;-81
2021/09/21 09:16:25;;;;;;;12.85;11.43;;;15.60;99.90;;;;;;4933092;29;20064;-82
2021/09/21 09:19:07;;;;;;;14.02;11.45;;;15.70;99.90;;;;;;4933322;29;20043;-81
2021/09/21 09:21:36;;;;;;;14.88;10.27;;;15.80;99.90;;;;;;4918168;29;20103;-81
2021/09/21 09:24:09;;;;;;;13.02;9.88;;;15.80;99.90;;;;;;4933558;29;20051;-82
2021/09/21 09:26:39;;;;;;;14.05;9.68;;;16.00;99.90;;;;;;4920575;29;20048;-81
2021/09/21 09:29:11;;;;;;;11.40;8.68;;;16.20;99.90;;;;;;4921220;29;20469;-80
2021/09/21 09:31:40;;;;;;;10.65;8.38;;;16.40;99.90;;;;;;4915963;29;20083;-81
2021/09/21 09:34:08;;;;;;;;;;;16.60;99.90;;;;;;4932885;29;20092;-81
2021/09/21 09:36:50;;;;;;;13.10;8.05;;;16.70;99.90;;;;;;4925408;29;20407;-81
2021/09/21 09:39:19;;;;;;;12.45;7.75;;;16.90;99.90;;;;;;4932029;29;20106;-81
2021/09/21 09:41:48;;;;;;;11.23;6.90;;;16.90;99.90;;;;;;4933029;29;20047;-81
2021/09/21 09:44:19;;;;;;;13.23;7.65;;;17.00;99.90;;;;;;4915394;29;20079;-81
2021/09/21 09:46:52;;;;;;;8.90;7.63;;;17.10;99.90;;;;;;4932601;29;20057;-81
2021/09/21 09:49:28;;;;;;;11.20;7.30;;;17.10;99.90;;;;;;4932334;29;20047;-81
2021/09/21 09:52:02;;;;;;;15.10;8.00;;;17.10;99.90;;;;;;4931691;29;20645;-81
2021/09/21 09:54:31;;;;;;;11.77;7.47;;;17.20;99.90;;;;;;4917174;29;20051;-81
2021/09/21 09:56:58;;;;;;;8.82;6.35;;;17.20;99.90;;;;;;4929414;29;20067;-80
2021/09/21 09:59:28;;;;;;;17.23;9.63;;;17.30;99.90;;;;;;4932472;29;20516;-81
2021/09/21 10:01:55;;;;;;;19.38;11.90;;;17.40;99.90;;;;;;4932642;29;20043;-81
2021/09/21 10:04:23;;;;;;;26.15;13.38;;;17.40;99.90;;;;;;4931982;29;20095;-80
2021/09/21 10:06:50;;;;;;;19.23;11.20;;;17.50;99.90;;;;;;4938549;29;20439;-81
2021/09/21 10:09:18;;;;;;;25.13;13.32;;;17.50;99.90;;;;;;4931422;29;20102;-80
2021/09/21 10:11:49;;;;;;;15.35;10.27;;;17.40;99.90;;;;;;4932797;29;20052;-81
2021/09/21 10:14:18;;;;;;;10.98;6.03;;;17.40;99.90;;;;;;4932141;29;20110;-80
2021/09/21 10:16:52;;;;;;;11.00;6.03;;;17.30;99.90;;;;;;4931875;29;20678;-80
2021/09/21 10:19:21;;;;;;;10.52;5.35;;;17.30;99.90;;;;;;4931296;29;20043;-81
2021/09/21 10:21:49;;;;;;;12.07;5.80;;;17.40;99.90;;;;;;4932166;29;20047;-82
2021/09/21 10:24:17;;;;;;;10.98;6.13;;;17.50;99.90;;;;;;4931682;29;20103;-81
2021/09/21 10:26:46;;;;;;;9.98;4.90;;;17.50;99.90;;;;;;4932579;29;20099;-81
2021/09/21 10:29:14;;;;;;;8.90;5.60;;;17.60;99.90;;;;;;4931252;29;20106;-81
2021/09/21 10:31:41;;;;;;;10.40;5.97;;;17.70;99.90;;;;;;4931984;29;20083;-82
2021/09/21 10:34:13;;;;;;;7.53;4.93;;;17.80;99.90;;;;;;4931453;29;20043;-80
2021/09/21 10:36:53;;;;;;;6.47;4.80;;;17.80;99.90;;;;;;4932201;29;20595;-80
2021/09/21 10:39:22;;;;;;;7.00;5.82;;;18.00;99.90;;;;;;4930773;29;20104;-81
2021/09/21 10:41:53;;;;;;;9.90;5.40;;;18.10;99.90;;;;;;4932585;29;20103;-81
2021/09/21 10:44:22;;;;;;;9.32;5.18;;;18.10;99.90;;;;;;4931585;29;20103;-80
2021/09/21 10:47:03;;;;;;;8.38;5.00;;;18.20;99.90;;;;;;4931738;29;20055;-81
2021/09/21 10:49:37;;;;;;;8.50;5.80;;;18.30;99.90;;;;;;4931495;29;20039;-81
2021/09/21 10:52:07;;;;;;;10.20;5.20;;;18.30;99.90;;;;;;4930927;29;20043;-80
2021/09/21 11:18:16;;;;;;;8.65;4.38;;;19.10;99.90;;;;;;4769957;29;20053;-80
2021/09/21 11:20:50;;;;;;;6.60;3.83;;;19.20;99.90;;;;;;4814553;29;20061;-81
2021/09/21 11:23:21;;;;;;;7.13;3.88;;;19.40;99.90;;;;;;4825910;29;20118;-82
2021/09/21 11:25:50;;;;;;;5.70;3.40;;;19.50;99.90;;;;;;4839816;29;20094;-82
2021/09/21 11:28:17;;;;;;;6.85;3.72;;;19.70;99.90;;;;;;4833914;29;20046;-81
2021/09/21 11:30:45;;;;;;;7.03;3.75;;;19.70;99.90;;;;;;4833795;29;20110;-81
2021/09/21 11:33:42;;;;;;;4.97;3.72;;;19.80;99.90;;;;;;4834961;29;20054;-81
2021/09/21 11:36:15;;;;;;;7.03;3.53;;;19.70;99.90;;;;;;4829856;29;20053;-80
2021/09/21 11:38:44;;;;;;;10.05;4.40;;;19.80;99.90;;;;;;4830455;29;20054;-80
2021/09/21 11:41:11;;;;;;;6.13;4.07;;;19.90;99.90;;;;;;4833666;29;20058;-81
2021/09/21 11:43:39;;;;;;;7.13;3.58;;;19.90;99.90;;;;;;4834612;29;20058;-81
2021/09/21 11:46:30;;;;;;;6.47;3.47;;;19.80;99.90;;;;;;4906337;29;20580;-81
2021/09/21 11:49:03;;;;;;;5.95;3.33;;;19.90;99.90;;;;;;4895480;29;20059;-81
2021/09/21 11:51:34;;;;;;;5.40;3.28;;;19.90;99.90;;;;;;4900588;29;20108;-81
2021/09/21 11:54:03;;;;;;;7.18;3.28;;;20.00;99.90;;;;;;4908628;29;20086;-80
2021/09/21 11:56:29;;;;;;;6.95;3.10;;;20.00;99.90;;;;;;4915840;29;20123;-81
2021/09/21 11:58:58;;;;;;;4.88;2.75;;;20.00;99.90;;;;;;4915854;29;20119;-81
2021/09/21 12:01:27;;;;;;;;;;;20.20;99.90;;;;;;4915119;29;20056;-81
2021/09/21 12:03:54;;;;;;;3.65;2.63;;;20.30;99.90;;;;;;4929782;29;20038;-79
2021/09/21 12:06:36;;;;;;;7.95;3.58;;;20.40;99.90;;;;;;4934109;29;20063;-81
2021/09/21 12:09:04;;;;;;;6.30;3.47;;;20.60;99.90;;;;;;4931442;29;20056;-82
2021/09/21 12:11:36;;;;;;;;;;;20.60;99.90;;;;;;4934966;29;20044;-81
2021/09/21 12:14:05;;;;;;;5.70;3.83;;;20.60;99.90;;;;;;4934634;29;19926;-81
2021/09/21 12:16:33;;;;;;;6.18;4.10;;;20.60;99.90;;;;;;4934629;29;20063;-81
2021/09/21 12:19:00;;;;;;;6.75;4.38;;;20.50;99.90;;;;;;4934516;29;20048;-81
2021/09/21 12:21:29;;;;;;;4.68;3.15;;;20.40;99.90;;;;;;4916776;29;20055;-81
2021/09/21 12:23:56;;;;;;;8.50;3.15;;;20.50;99.90;;;;;;4931395;29;20115;-81
2021/09/21 12:26:23;;;;;;;6.45;3.25;;;20.50;99.90;;;;;;4933566;29;20051;-81
2021/09/21 12:28:53;;;;;;;4.63;2.60;;;20.50;99.90;;;;;;4934345;29;20123;-82
2021/09/21 12:31:24;;;;;;;4.28;2.72;;;20.50;99.90;;;;;;4933709;29;20483;-82
2021/09/21 12:33:53;;;;;;;7.03;3.30;;;20.60;99.90;;;;;;4934107;29;20471;-82
2021/09/21 12:36:24;;;;;;;6.55;3.30;;;20.50;99.90;;;;;;4933632;29;20107;-83
2021/09/21 12:39:07;;;;;;;4.70;2.90;;;20.60;99.90;;;;;;4934753;29;20106;-83
2021/09/21 12:41:38;;;;;;;5.28;2.35;;;20.60;99.90;;;;;;4904755;29;20052;-82
2021/09/21 12:44:08;;;;;;;5.53;2.10;;;20.60;99.90;;;;;;4931101;29;20099;-82
2021/09/21 12:46:38;;;;;;;5.22;2.40;;;20.70;99.90;;;;;;4934230;29;20043;-82
2021/09/21 12:49:05;;;;;;;3.67;2.75;;;20.70;99.90;;;;;;4933804;29;20079;-80
2021/09/21 12:51:42;;;;;;;3.58;2.47;;;20.80;99.90;;;;;;4934169;29;20071;-82
2021/09/21 12:54:18;;;;;;;3.80;2.83;;;20.90;99.90;;;;;;4933943;29;20083;-82
2021/09/21 12:56:50;;;;;;;5.28;2.58;;;20.90;99.90;;;;;;4932490;29;20052;-83
2021/09/21 12:59:20;;;;;;;4.53;2.42;;;20.90;99.90;;;;;;4933213;29;20431;-82
2021/09/21 13:01:48;;;;;;;6.00;2.00;;;20.90;99.90;;;;;;4933654;29;20048;-82
2021/09/21 13:04:35;;;;;;;4.50;2.42;;;20.80;99.90;;;;;;4933143;29;20052;-82
2021/09/21 13:07:02;;;;;;;3.03;2.00;;;20.70;99.90;;;;;;4933443;29;20176;-82
2021/09/21 13:09:29;;;;;;;5.63;2.78;;;20.60;99.90;;;;;;4933239;29;20084;-82
2021/09/21 13:11:57;;;;;;;7.40;3.17;;;20.70;99.90;;;;;;4913667;29;20063;-82
2021/09/21 13:14:24;;;;;;;4.80;2.38;;;20.70;99.90;;;;;;4932884;29;20051;-82
2021/09/21 13:16:51;;;;;;;3.95;2.17;;;20.80;99.90;;;;;;4933156;29;20052;-82
2021/09/21 13:19:19;;;;;;;3.50;2.25;;;20.90;99.90;;;;;;4932581;29;20055;-82
2021/09/21 13:21:47;;;;;;;5.07;1.90;;;21.00;99.90;;;;;;4933684;29;20051;-82
2021/09/21 13:24:14;;;;;;;4.47;2.30;;;21.10;99.90;;;;;;4933080;29;20583;-82
2021/09/21 13:26:41;;;;;;;5.05;2.03;;;21.20;99.90;;;;;;4932046;29;20576;-82
2021/09/21 13:29:08;;;;;;;3.97;2.25;;;21.20;99.90;;;;;;4932554;29;20075;-81
2021/09/21 13:31:35;;;;;;;4.15;1.90;;;21.10;99.90;;;;;;4929498;29;20134;-82
2021/09/21 13:34:03;;;;;;;6.15;2.25;;;21.10;99.90;;;;;;4922163;29;20420;-82
2021/09/21 13:36:31;;;;;;;3.45;1.70;;;21.10;99.90;;;;;;4917985;29;20047;-82
2021/09/21 13:38:58;;;;;;;5.40;1.75;;;21.20;99.90;;;;;;4930235;29;20056;-82
2021/09/21 13:41:27;;;;;;;4.22;1.95;;;21.30;99.90;;;;;;4932444;29;20114;-82
2021/09/21 13:43:54;;;;;;;3.40;1.88;;;21.40;99.90;;;;;;4932941;29;20059;-82
2021/09/21 13:46:21;;;;;;;3.28;1.70;;;21.50;99.90;;;;;;4932068;29;20051;-82
2021/09/21 13:48:48;;;;;;;4.30;1.80;;;21.60;99.90;;;;;;4932608;29;20132;-83
2021/09/21 13:51:14;;;;;;;3.03;1.58;;;21.60;99.90;;;;;;4932339;29;20075;-82
2021/09/21 13:53:41;;;;;;;2.47;1.52;;;21.60;99.90;;;;;;4931721;29;20051;-82
2021/09/21 13:56:10;;;;;;;4.95;2.05;;;21.70;99.90;;;;;;4932154;29;20079;-82
2021/09/21 13:58:38;;;;;;;2.67;1.50;;;21.70;99.90;;;;;;4932709;29;20413;-82
2021/09/21 14:01:05;;;;;;;3.33;1.60;;;21.80;99.90;;;;;;4931957;29;20102;-81
2021/09/21 14:03:33;;;;;;;3.92;1.77;;;21.90;99.90;;;;;;4931958;29;20099;-83
2021/09/21 14:06:01;;;;;;;3.33;1.90;;;21.80;99.90;;;;;;4932968;29;20131;-81
2021/09/21 14:08:28;;;;;;;5.05;2.15;;;21.70;99.90;;;;;;4921125;29;20076;-82
2021/09/21 14:10:55;;;;;;;3.95;1.73;;;21.60;99.90;;;;;;4911580;29;20055;-82
2021/09/21 14:13:22;;;;;;;4.00;1.70;;;21.50;99.90;;;;;;4930945;29;20043;-81
2021/09/21 14:15:49;;;;;;;3.45;1.92;;;21.40;99.90;;;;;;4932470;29;20051;-81
2021/09/21 14:18:16;;;;;;;3.28;1.58;;;21.40;99.90;;;;;;4932388;29;20054;-83
2021/09/21 14:20:44;;;;;;;1.63;1.20;;;21.40;99.90;;;;;;4932608;29;20051;-81
2021/09/21 14:23:10;;;;;;;3.53;1.60;;;21.40;99.90;;;;;;4931905;29;20044;-82
2021/09/21 14:25:37;;;;;;;4.55;1.40;;;21.50;99.90;;;;;;4922313;29;20047;-81
2021/09/21 14:28:04;;;;;;;4.95;1.42;;;21.50;99.90;;;;;;4931907;29;20551;-83
2021/09/21 14:30:31;;;;;;;2.58;1.50;;;21.60;99.90;;;;;;4932607;29;20048;-82
2021/09/21 14:32:58;;;;;;;3.30;1.70;;;21.70;99.90;;;;;;4928613;29;20507;-83
2021/09/21 14:35:25;;;;;;;3.97;1.40;;;21.70;99.90;;;;;;4931818;29;20059;-81
2021/09/21 14:37:53;;;;;;;3.45;1.42;;;21.90;99.90;;;;;;4932764;29;20047;-81
2021/09/21 14:40:21;;;;;;;2.47;1.40;;;22.00;99.90;;;;;;4931607;29;20087;-82
2021/09/21 14:42:48;;;;;;;4.00;1.55;;;22.10;99.90;;;;;;4932228;29;20095;-80
2021/09/21 14:45:17;;;;;;;3.00;1.67;;;22.10;99.90;;;;;;4931546;29;20079;-80
2021/09/21 14:47:45;;;;;;;4.50;1.80;;;22.00;99.90;;;;;;4931122;29;20594;-81
2021/09/21 14:50:14;;;;;;;3.17;2.00;;;21.90;99.90;;;;;;4931996;29;20055;-82
2021/09/21 14:52:42;;;;;;;3.42;1.63;;;21.70;99.90;;;;;;4932004;29;20079;-82
2021/09/21 14:55:09;;;;;;;3.53;1.55;;;21.60;99.90;;;;;;4931522;29;20044;-81
2021/09/21 14:57:36;;;;;;;3.45;1.50;;;21.60;99.90;;;;;;4931816;29;20517;-80
2021/09/21 15:00:08;;;;;;;4.32;1.63;;;21.50;99.90;;;;;;4931779;29;20103;-81
2021/09/21 15:02:35;;;;;;;4.50;1.35;;;21.60;99.90;;;;;;4912186;29;20123;-81
2021/09/21 15:05:03;;;;;;;3.83;1.40;;;21.60;99.90;;;;;;4928879;29;20468;-82
2021/09/21 15:07:30;;;;;;;3.75;1.52;;;21.70;99.90;;;;;;4930702;29;20048;-81
2021/09/21 15:09:56;;;;;;;3.60;1.70;;;21.80;99.90;;;;;;4931789;29;20048;-82
2021/09/21 15:12:23;;;;;;;2.88;1.60;;;21.90;99.90;;;;;;4931607;29;21097;-82
2021/09/21 15:14:50;;;;;;;4.38;1.50;;;21.90;99.90;;;;;;4918127;29;20128;-81
2021/09/21 15:17:17;;;;;;;3.20;1.63;;;21.80;99.90;;;;;;4929933;29;20082;-81
2021/09/21 15:19:45;;;;;;;5.50;1.73;;;21.70;99.90;;;;;;4932112;29;20095;-82
2021/09/21 15:22:13;;;;;;;5.00;1.80;;;21.60;99.90;;;;;;4931122;29;20079;-82
2021/09/21 15:24:41;;;;;;;7.70;1.95;;;21.50;99.90;;;;;;4934399;29;20146;-80
2021/09/21 15:27:08;;;;;;;4.00;1.73;;;21.50;99.90;;;;;;4935286;29;20052;-83
2021/09/21 15:29:35;;;;;;;3.83;1.67;;;21.50;99.90;;;;;;4925109;29;20449;-81
2021/09/21 15:32:02;;;;;;;5.47;1.55;;;21.50;99.90;;;;;;4927859;29;20075;-82
2021/09/21 15:34:29;;;;;;;5.55;1.95;;;21.40;99.90;;;;;;4916941;29;20202;-81
2021/09/21 15:36:56;;;;;;;4.97;1.90;;;21.40;99.90;;;;;;4930885;29;21121;-82
2021/09/21 15:39:23;;;;;;;4.47;1.95;;;21.50;99.90;;;;;;4929061;29;20105;-81
2021/09/21 15:41:51;;;;;;;6.32;2.17;;;21.60;99.90;;;;;;4932835;29;20048;-84
2021/09/21 15:44:19;;;;;;;5.10;2.00;;;21.70;99.90;;;;;;4932869;29;20519;-84
2021/09/21 15:46:45;;;;;;;5.38;2.22;;;21.70;99.90;;;;;;4935656;29;20130;-82
2021/09/21 15:49:13;;;;;;;5.78;2.22;;;21.70;99.90;;;;;;4914903;29;20505;-82
2021/09/21 15:51:40;;;;;;;7.90;2.47;;;21.60;99.90;;;;;;4933497;29;20054;-82
2021/09/21 15:54:07;;;;;;;6.05;2.10;;;21.50;99.90;;;;;;4934296;29;20068;-82
2021/09/21 15:56:34;;;;;;;4.30;2.00;;;21.30;99.90;;;;;;4942058;29;20047;-83
2021/09/21 15:59:02;;;;;;;5.72;2.47;;;21.20;99.90;;;;;;4942263;29;20055;-83
2021/09/21 16:01:30;;;;;;;7.10;2.28;;;21.10;99.90;;;;;;4910808;29;20118;-82
2021/09/21 16:03:57;;;;;;;7.65;2.15;;;21.10;99.90;;;;;;4924860;29;20523;-83
2021/09/21 16:06:23;;;;;;;4.55;2.00;;;21.10;99.90;;;;;;4930069;29;20508;-83
2021/09/21 16:08:52;;;;;;;7.45;1.98;;;21.10;99.90;;;;;;4931811;29;20126;-83
2021/09/21 16:11:21;;;;;;;6.23;2.10;;;21.20;99.90;;;;;;4925873;29;20044;-82
2021/09/21 16:13:48;;;;;;;4.68;2.20;;;21.20;99.90;;;;;;4929140;29;20047;-83
2021/09/21 16:16:15;;;;;;;6.95;2.20;;;21.20;99.90;;;;;;4928616;29;20063;-83
2021/09/21 16:18:43;;;;;;;5.35;2.22;;;21.30;99.90;;;;;;4927085;29;20055;-82
2021/09/21 16:21:10;;;;;;;7.28;2.10;;;21.30;99.90;;;;;;4928942;29;20051;-81
2021/09/21 16:23:37;;;;;;;6.85;2.45;;;21.30;99.90;;;;;;4931415;29;20055;-84
2021/09/21 16:26:06;;;;;;;5.03;2.28;;;21.20;99.90;;;;;;4912208;29;20052;-84
2021/09/21 16:28:33;;;;;;;6.50;2.40;;;21.10;99.90;;;;;;4903306;29;20056;-84
2021/09/21 16:31:01;;;;;;;5.57;2.40;;;21.00;99.90;;;;;;4913272;29;20047;-86
2021/09/21 16:33:30;;;;;;;8.05;2.60;;;20.90;99.90;;;;;;4913476;29;20583;-84
2021/09/21 16:35:57;;;;;;;5.22;2.70;;;20.80;99.90;;;;;;4929503;29;20051;-87
2021/09/21 16:38:24;;;;;;;5.68;2.40;;;20.70;99.90;;;;;;4930089;29;20500;-84
2021/09/21 16:40:52;;;;;;;6.97;2.67;;;20.70;99.90;;;;;;4927761;29;20048;-84
2021/09/21 16:43:21;;;;;;;6.30;2.65;;;20.70;99.90;;;;;;4929538;29;20118;-83
2021/09/21 16:45:49;;;;;;;6.07;2.53;;;20.70;99.90;;;;;;4926335;29;20058;-82
2021/09/21 16:48:17;;;;;;;4.85;2.47;;;20.70;99.90;;;;;;4914855;29;20556;-82
2021/09/21 16:50:45;;;;;;;6.30;2.42;;;20.70;99.90;;;;;;4931220;29;20504;-83
2021/09/21 16:53:13;;;;;;;5.68;2.40;;;20.60;99.90;;;;;;4930329;29;20051;-81
2021/09/21 16:55:40;;;;;;;7.37;2.73;;;20.60;99.90;;;;;;4929164;29;20047;-82
2021/09/21 16:58:07;;;;;;;7.10;3.22;;;20.70;99.90;;;;;;4927249;29;20370;-82
2021/09/21 17:00:38;;;;;;;6.35;3.13;;;20.60;99.90;;;;;;4928075;29;20787;-82
2021/09/21 17:03:10;;;;;;;7.95;3.88;;;20.50;99.90;;;;;;4913800;29;20066;-84
2021/09/21 17:05:40;;;;;;;5.22;3.00;;;20.40;99.90;;;;;;4931881;29;20051;-83
2021/09/21 17:08:10;;;;;;;6.00;3.22;;;20.50;99.90;;;;;;4927295;29;20058;-83
2021/09/21 17:10:38;;;;;;;6.28;2.65;;;20.40;99.90;;;;;;4927944;29;20047;-82
2021/09/21 17:13:05;;;;;;;6.53;2.70;;;20.40;99.90;;;;;;4912994;29;20071;-82
2021/09/21 17:15:32;;;;;;;5.93;2.92;;;20.30;99.90;;;;;;4908496;29;20047;-83
2021/09/21 17:17:59;;;;;;;5.63;2.90;;;20.30;99.90;;;;;;4931412;29;20512;-80
2021/09/21 17:20:27;;;;;;;7.72;3.40;;;20.20;99.90;;;;;;4925940;29;20056;-82
2021/09/21 17:22:54;;;;;;;4.70;3.13;;;20.20;99.90;;;;;;4930080;29;20055;-81
2021/09/21 17:25:34;;;;;;;4.70;2.95;;;20.10;99.90;;;;;;4911459;29;20051;-82
2021/09/21 17:28:01;;;;;;;;;;;20.10;99.90;;;;;;4936788;28;20838;-81
2021/09/21 17:30:28;;;;;;;6.75;3.47;;;20.00;99.90;;;;;;4932543;29;19982;-81
2021/09/21 17:32:55;;;;;;;4.15;3.35;;;19.90;99.90;;;;;;4936666;29;20050;-81
2021/09/21 17:35:22;;;;;;;5.20;3.20;;;19.80;99.90;;;;;;4930785;29;20071;-81
2021/09/21 17:37:49;;;;;;;7.07;3.28;;;19.70;99.90;;;;;;4930608;29;20466;-80
2021/09/21 17:40:17;;;;;;;6.07;3.17;;;19.70;99.90;;;;;;4934736;29;20082;-81
2021/09/21 17:42:50;;;;;;;5.05;3.70;;;19.60;99.90;;;;;;4938953;29;20106;-81
2021/09/21 17:45:33;;;;;;;4.93;3.30;;;19.50;99.90;;;;;;4938130;29;20138;-81
2021/09/21 17:48:02;;;;;;;6.00;4.07;;;19.40;99.90;;;;;;4939603;29;20075;-81
2021/09/21 17:50:29;;;;;;;;;;;19.30;99.90;;;;;;4940425;29;20051;-82
2021/09/21 17:52:57;;;;;;;8.32;4.45;;;19.20;99.90;;;;;;4940681;29;20482;-82
2021/09/21 17:55:26;;;;;;;6.03;4.43;;;19.10;99.90;;;;;;4939684;29;20065;-84
2021/09/21 17:57:54;;;;;;;7.95;4.40;;;19.00;99.90;;;;;;4923323;29;20055;-84
2021/09/21 18:00:27;;;;;;;6.22;4.35;;;18.90;99.90;;;;;;4941003;29;20110;-85
2021/09/21 18:02:59;;;;;;;6.00;4.88;;;18.90;99.90;;;;;;4942322;29;20058;-83
2021/09/21 18:05:26;;;;;;;6.05;5.10;;;18.70;99.90;;;;;;4939010;29;20134;-84
2021/09/21 18:07:55;;;;;;;8.05;5.35;;;18.70;99.90;;;;;;4939961;29;20055;-83
2021/09/21 18:17:43;;;;;;;6.88;5.95;;;18.40;99.90;;;;;;4714402;30;20047;-85
2021/09/21 18:25:06;;;;;;;8.73;6.20;;;18.10;99.90;;;;;;4611903;30;20045;-83
2021/09/21 18:27:32;;;;;;;6.78;6.05;;;18.00;99.90;;;;;;4664342;30;20084;-83
2021/09/21 18:30:10;;;;;;;10.25;6.65;;;17.90;99.90;;;;;;4683288;30;20145;-83
2021/09/21 18:32:38;;;;;;;10.25;6.68;;;17.80;99.90;;;;;;4690335;30;20436;-82
2021/09/21 18:35:05;;;;;;;11.60;6.65;;;17.70;99.90;;;;;;4689126;30;20053;-84
2021/09/21 18:37:32;;;;;;;8.57;7.40;;;17.60;99.90;;;;;;4702423;30;20052;-82
2021/09/21 18:40:00;;;;;;;9.05;7.75;;;17.60;99.90;;;;;;4757946;30;20645;-84
2021/09/21 18:42:27;;;;;;;10.23;7.47;;;17.50;99.90;;;;;;4758176;30;20104;-83
2021/09/21 18:44:54;;;;;;;11.60;7.70;;;17.40;99.90;;;;;;4767970;29;20055;-84
2021/09/21 18:47:21;;;;;;;12.43;8.23;;;17.40;99.90;;;;;;4775328;29;20352;-82
2021/09/21 18:49:48;;;;;;;10.20;8.20;;;17.30;99.90;;;;;;4769197;29;20051;-83
2021/09/21 18:52:15;;;;;;;13.50;8.63;;;17.30;99.90;;;;;;4825219;29;20436;-82
2021/09/21 18:54:42;;;;;;;10.00;8.75;;;17.20;99.90;;;;;;4859034;29;20063;-83
2021/09/21 18:57:09;;;;;;;11.27;9.25;;;17.20;99.90;;;;;;4925044;29;20048;-83
2021/09/21 18:59:37;;;;;;;9.70;8.40;;;17.10;99.90;;;;;;4919374;29;20150;-83
2021/09/21 19:02:04;;;;;;;10.00;8.52;;;17.00;99.90;;;;;;4925376;29;20138;-83
2021/09/21 19:04:31;;;;;;;12.35;8.55;;;17.00;99.90;;;;;;4941633;28;20845;-82
2021/09/21 19:06:57;;;;;;;10.23;8.73;;;17.00;99.90;;;;;;4926120;29;20047;-83
2021/09/21 19:09:31;;;;;;;11.02;8.75;;;16.90;99.90;;;;;;4927810;29;20048;-83
2021/09/21 19:11:58;;;;;;;9.93;8.70;;;16.90;99.90;;;;;;4932181;29;20049;-82
2021/09/21 19:14:25;;;;;;;8.57;7.63;;;16.80;99.90;;;;;;4919426;29;20058;-83
2021/09/21 19:16:52;;;;;;;12.95;8.02;;;16.80;99.90;;;;;;4927911;29;20054;-83
2021/09/21 19:19:19;;;;;;;10.57;7.53;;;16.70;99.90;;;;;;4922039;29;20053;-84
2021/09/21 19:21:46;;;;;;;10.07;8.07;;;16.70;99.90;;;;;;4910493;29;20047;-84
2021/09/21 19:24:14;;;;;;;8.13;7.32;;;16.60;99.90;;;;;;4909346;29;20102;-82
2021/09/21 19:26:41;;;;;;;11.07;7.93;;;16.60;99.90;;;;;;4926707;29;20051;-83